createdAt,value
2023-03-18T00:01:07.718Z,9.47
2023-03-18T00:03:38.674Z,7.57
2023-03-18T00:06:08.679Z,8.37
2023-03-18T00:08:39.433Z,7.50
2023-03-18T00:11:08.041Z,7.67
2023-03-18T00:13:36.684Z,7.80
2023-03-18T00:16:07.242Z,4.63
2023-03-18T00:18:35.612Z,7.00
2023-03-18T00:21:03.852Z,7.53
2023-03-18T00:23:33.270Z,8.53
2023-03-18T00:26:03.085Z,4.40
2023-03-18T00:28:32.724Z,7.63
2023-03-18T00:31:05.357Z,11.03
2023-03-18T00:33:33.785Z,5.97
2023-03-18T00:36:02.799Z,5.53
2023-03-18T00:38:30.778Z,5.43
2023-03-18T00:41:11.439Z,5.83
2023-03-18T00:43:52.599Z,4.30
2023-03-18T00:46:23.526Z,5.43
2023-03-18T00:48:52.538Z,6.13
2023-03-18T00:51:22.823Z,7.40
2023-03-18T00:53:53.134Z,7.53
2023-03-18T00:56:23.994Z,7.10
2023-03-18T00:58:53.898Z,4.30
2023-03-18T01:01:23.060Z,5.63
2023-03-18T01:03:51.665Z,6.00
2023-03-18T01:06:25.634Z,6.63
2023-03-18T01:08:53.840Z,8.53
2023-03-18T01:11:21.974Z,7.03
2023-03-18T01:13:50.157Z,5.40
2023-03-18T01:16:20.964Z,5.17
2023-03-18T01:21:23.637Z,6.50
2023-03-18T01:23:51.521Z,7.07
2023-03-18T01:26:19.649Z,6.07
2023-03-18T01:28:48.117Z,8.13
2023-03-18T01:31:16.369Z,4.80
2023-03-18T01:33:46.081Z,8.50
2023-03-18T01:36:15.381Z,6.70
2023-03-18T01:38:43.242Z,6.03
2023-03-18T01:41:12.426Z,6.73
2023-03-18T01:43:43.696Z,6.63
2023-03-18T01:46:37.480Z,5.63
2023-03-18T01:49:10.678Z,8.27
2023-03-18T01:51:40.702Z,5.97
2023-03-18T01:54:10.418Z,5.07
2023-03-18T01:56:41.528Z,4.00
2023-03-18T01:59:10.547Z,8.27
2023-03-18T02:01:43.856Z,5.10
2023-03-18T02:04:19.108Z,5.43
2023-03-18T02:06:47.145Z,5.83
2023-03-18T02:09:16.112Z,8.13
2023-03-18T02:11:46.739Z,6.57
2023-03-18T02:14:17.028Z,7.37
2023-03-18T02:16:48.614Z,7.43
2023-03-18T02:19:30.571Z,9.67
2023-03-18T02:22:06.506Z,3.57
2023-03-18T02:24:40.576Z,5.73
2023-03-18T02:27:18.300Z,5.00
2023-03-18T02:29:47.824Z,6.03
2023-03-18T02:32:17.186Z,6.07
2023-03-18T02:34:46.711Z,5.83
2023-03-18T02:37:14.650Z,5.30
2023-03-18T02:39:42.488Z,5.53
2023-03-18T02:42:13.054Z,5.87
2023-03-18T02:44:44.839Z,6.33
2023-03-18T02:47:16.116Z,5.17
2023-03-18T02:49:44.569Z,6.83
2023-03-18T02:52:12.808Z,6.50
2023-03-18T02:54:41.171Z,6.87
2023-03-18T02:57:09.144Z,6.47
2023-03-18T02:59:36.940Z,7.50
2023-03-18T03:02:06.611Z,6.27
2023-03-18T03:04:34.946Z,6.93
2023-03-18T03:07:02.823Z,4.73
2023-03-18T03:09:31.123Z,4.63
2023-03-18T03:11:58.978Z,3.83
2023-03-18T03:14:26.946Z,4.87
2023-03-18T03:16:54.839Z,4.90
2023-03-18T03:19:24.035Z,7.47
2023-03-18T03:21:52.284Z,5.13
2023-03-18T03:24:20.411Z,6.57
2023-03-18T03:26:48.620Z,6.83
2023-03-18T03:29:16.441Z,5.97
2023-03-18T03:31:44.290Z,5.23
2023-03-18T03:34:12.259Z,2.63
2023-03-18T03:36:41.596Z,8.20
2023-03-18T03:39:09.481Z,4.93
2023-03-18T03:41:37.404Z,6.20
2023-03-18T03:44:05.369Z,3.40
2023-03-18T03:46:33.277Z,5.70
2023-03-18T03:49:01.344Z,4.97
2023-03-18T03:51:29.380Z,8.50
2023-03-18T03:53:59.012Z,4.30
2023-03-18T03:56:27.329Z,4.60
2023-03-18T03:58:55.363Z,6.77
2023-03-18T04:01:23.346Z,5.77
2023-03-18T04:03:51.384Z,4.57
2023-03-18T04:06:19.598Z,5.13
2023-03-18T04:08:47.650Z,4.57
2023-03-18T04:11:17.324Z,4.87
2023-03-18T04:13:45.638Z,6.77
2023-03-18T04:16:14.551Z,7.37
2023-03-18T04:18:42.593Z,4.27
2023-03-18T04:21:10.740Z,4.87
2023-03-18T04:23:38.805Z,5.90
2023-03-18T04:26:07.079Z,3.80
2023-03-18T04:28:36.528Z,6.60
2023-03-18T04:31:04.861Z,5.20
2023-03-18T04:33:33.566Z,2.87
2023-03-18T04:36:01.769Z,5.57
2023-03-18T04:38:29.817Z,8.20
2023-03-18T04:40:57.959Z,6.60
2023-03-18T04:43:25.998Z,3.90
2023-03-18T04:45:55.481Z,5.80
2023-03-18T04:48:23.452Z,5.13
2023-03-18T04:50:51.567Z,6.80
2023-03-18T04:53:19.918Z,3.70
2023-03-18T04:55:49.449Z,4.20
2023-03-18T04:58:17.892Z,4.07
2023-03-18T05:00:46.215Z,6.07
2023-03-18T05:03:15.935Z,6.63
2023-03-18T05:05:44.114Z,7.70
2023-03-18T05:08:12.889Z,5.30
2023-03-18T05:10:41.395Z,5.37
2023-03-18T05:13:11.173Z,4.53
2023-03-18T05:15:39.185Z,3.93
2023-03-18T05:18:07.255Z,5.50
2023-03-18T05:20:36.567Z,5.13
2023-03-18T05:23:04.844Z,3.87
2023-03-18T05:25:33.516Z,7.40
2023-03-18T05:28:01.940Z,5.20
2023-03-18T05:30:30.006Z,4.20
2023-03-18T05:32:58.624Z,4.20
2023-03-18T05:35:26.655Z,9.07
2023-03-18T05:37:56.077Z,4.43
2023-03-18T05:40:24.216Z,4.97
2023-03-18T05:42:56.261Z,7.87
2023-03-18T05:45:24.877Z,7.10
2023-03-18T05:47:53.183Z,6.60
2023-03-18T05:50:30.129Z,8.07
2023-03-18T05:52:59.903Z,8.70
2023-03-18T05:55:28.436Z,7.60
2023-03-18T05:57:57.260Z,9.80
2023-03-18T06:00:25.835Z,7.90
2023-03-18T06:02:54.099Z,8.83
2023-03-18T06:05:23.242Z,10.83
2023-03-18T06:07:51.515Z,7.00
2023-03-18T06:10:22.678Z,8.40
2023-03-18T06:12:51.303Z,9.00
2023-03-18T06:15:21.498Z,8.40
2023-03-18T06:17:50.035Z,8.27
2023-03-18T06:20:19.676Z,12.70
2023-03-18T06:22:49.984Z,10.07
2023-03-18T06:25:21.765Z,8.47
2023-03-18T06:27:50.041Z,4.77
2023-03-18T06:30:19.254Z,4.37
2023-03-18T06:32:47.932Z,7.07
2023-03-18T06:35:16.699Z,3.90
2023-03-18T06:37:44.736Z,5.27
2023-03-18T06:40:13.424Z,4.10
2023-03-18T06:42:43.088Z,5.33
2023-03-18T06:45:12.118Z,4.03
2023-03-18T06:47:41.175Z,6.03
2023-03-18T06:50:10.398Z,7.70
2023-03-18T06:52:39.189Z,4.47
2023-03-18T06:55:08.154Z,5.80
2023-03-18T06:57:36.136Z,5.90
2023-03-18T07:00:06.322Z,8.70
2023-03-18T07:02:34.677Z,4.63
2023-03-18T07:05:04.368Z,5.73
2023-03-18T07:07:32.564Z,4.07
2023-03-18T07:10:00.794Z,7.57
2023-03-18T07:12:28.974Z,6.83
2023-03-18T07:14:56.922Z,5.60
2023-03-18T08:11:26.126Z,4.70
2023-03-18T08:13:54.309Z,5.03
2023-03-18T08:16:23.231Z,3.67
2023-03-18T08:19:02.446Z,4.57
2023-03-18T08:21:30.924Z,5.33
2023-03-18T08:23:59.040Z,5.43
2023-03-18T08:26:30.722Z,4.70
2023-03-18T08:28:58.742Z,4.67
2023-03-18T08:31:29.094Z,3.83
2023-03-18T08:34:00.615Z,4.33
2023-03-18T08:36:28.793Z,5.03
2023-03-18T08:38:58.115Z,6.00
2023-03-18T08:41:26.654Z,4.60
2023-03-18T08:44:01.846Z,5.10
2023-03-18T08:46:30.440Z,4.33
2023-03-18T08:48:59.870Z,6.07
2023-03-18T08:51:29.381Z,6.37
2023-03-18T08:54:00.675Z,7.30
2023-03-18T08:56:29.170Z,3.37
2023-03-18T08:59:05.219Z,3.03
2023-03-18T09:01:33.453Z,3.67
2023-03-18T09:04:02.631Z,4.93
2023-03-18T09:06:31.549Z,3.40
2023-03-18T09:09:01.980Z,3.30
2023-03-18T09:11:31.370Z,4.40
2023-03-18T09:14:00.902Z,3.95
2023-03-18T09:16:35.942Z,4.80
2023-03-18T09:19:04.373Z,3.88
2023-03-18T09:21:36.240Z,3.92
2023-03-18T09:24:07.088Z,5.47
2023-03-18T09:26:39.911Z,3.73
2023-03-18T09:36:14.860Z,5.20
2023-03-18T09:38:43.860Z,3.92
2023-03-18T09:41:25.715Z,10.37
2023-03-18T09:44:04.222Z,4.55
2023-03-18T09:46:48.005Z,3.15
2023-03-18T09:49:33.211Z,5.47
2023-03-18T09:52:14.189Z,6.00
2023-03-18T09:54:47.279Z,4.15
2023-03-18T09:57:20.641Z,4.60
2023-03-18T09:59:51.856Z,5.05
2023-03-18T10:02:24.758Z,3.90
2023-03-18T10:04:57.444Z,5.32
2023-03-18T10:07:31.091Z,4.78
2023-03-18T10:10:04.676Z,4.10
2023-03-18T10:12:35.539Z,4.70
2023-03-18T10:15:14.978Z,3.25
2023-03-18T10:17:47.310Z,4.25
2023-03-18T10:20:19.936Z,3.22
2023-03-18T10:23:07.215Z,3.97
2023-03-18T10:25:39.010Z,3.58
2023-03-18T10:28:42.602Z,4.05
2023-03-18T10:31:25.612Z,5.80
2023-03-18T10:34:00.155Z,5.72
2023-03-18T10:36:39.296Z,4.32
2023-03-18T10:39:15.364Z,3.53
2023-03-18T10:41:49.978Z,5.47
2023-03-18T10:44:22.800Z,4.03
2023-03-18T10:46:59.936Z,2.83
2023-03-18T10:49:32.988Z,3.25
2023-03-18T10:52:07.836Z,4.57
2023-03-18T10:54:41.282Z,2.55
2023-03-18T10:57:14.267Z,3.10
2023-03-18T10:59:44.729Z,4.90
2023-03-18T11:02:19.677Z,3.45
2023-03-18T11:04:55.451Z,3.60
2023-03-18T11:07:26.770Z,4.18
2023-03-18T11:09:55.766Z,3.83
2023-03-18T11:12:27.101Z,5.60
2023-03-18T11:14:56.384Z,5.20
2023-03-18T11:17:28.223Z,4.93
2023-03-18T11:20:08.195Z,5.90
2023-03-18T11:22:38.771Z,3.85
2023-03-18T11:25:16.655Z,12.65
2023-03-18T11:27:47.233Z,4.95
2023-03-18T11:30:33.259Z,5.85
2023-03-18T11:33:06.332Z,3.70
2023-03-18T11:35:40.886Z,5.18
2023-03-18T11:38:16.328Z,4.78
2023-03-18T11:40:44.871Z,4.20
2023-03-18T11:43:20.597Z,5.30
2023-03-18T11:45:53.413Z,3.70
2023-03-18T11:48:30.629Z,4.57
2023-03-18T11:51:35.717Z,3.92
2023-03-18T11:54:15.362Z,3.95
2023-03-18T11:56:47.854Z,4.38
2023-03-18T11:59:33.586Z,3.90
2023-03-18T12:02:25.427Z,4.45
2023-03-18T12:05:28.758Z,3.80
2023-03-18T12:08:07.753Z,4.07
2023-03-18T12:10:39.022Z,3.97
2023-03-18T12:13:25.741Z,5.50
2023-03-18T12:16:05.027Z,3.45
2023-03-18T12:18:48.929Z,6.55
2023-03-18T12:21:31.843Z,4.82
2023-03-18T12:24:14.595Z,4.93
2023-03-18T12:26:52.569Z,3.95
2023-03-18T12:29:38.558Z,4.47
2023-03-18T12:32:14.548Z,5.22
2023-03-18T12:35:10.874Z,5.22
2023-03-18T12:37:53.916Z,5.50
2023-03-18T12:40:34.393Z,3.20
2023-03-18T12:43:34.990Z,2.72
2023-03-18T12:46:10.489Z,3.80
2023-03-18T12:48:46.411Z,2.97
2023-03-18T12:51:19.194Z,3.13
2023-03-18T12:53:50.191Z,2.33
2023-03-18T12:56:22.451Z,2.42
2023-03-18T12:58:55.177Z,3.30
2023-03-18T13:01:28.561Z,6.68
2023-03-18T13:04:02.088Z,1.95
2023-03-18T13:06:35.502Z,1.58
2023-03-18T13:09:13.378Z,2.92
2023-03-18T13:12:05.099Z,1.88
2023-03-18T13:14:49.270Z,2.05
2023-03-18T13:17:23.451Z,2.95
2023-03-18T13:19:51.927Z,1.60
2023-03-18T13:22:49.569Z,6.45
2023-03-18T13:25:29.040Z,3.40
2023-03-18T13:28:21.730Z,1.27
2023-03-18T13:31:07.879Z,1.45
2023-03-18T13:33:54.081Z,3.22
2023-03-18T13:36:51.673Z,1.42
2023-03-18T13:39:31.661Z,1.70
2023-03-18T13:42:22.378Z,2.75
2023-03-18T13:44:59.851Z,2.58
2023-03-18T13:47:32.777Z,3.10
2023-03-18T13:50:04.884Z,2.72
2023-03-18T13:52:41.920Z,3.55
2023-03-18T13:55:23.470Z,2.17
2023-03-18T13:57:57.466Z,1.70
2023-03-18T14:00:33.327Z,4.03
2023-03-18T14:03:17.211Z,3.55
2023-03-18T14:05:46.991Z,2.13
2023-03-18T14:08:35.363Z,2.38
2023-03-18T14:11:37.326Z,1.45
2023-03-18T14:14:07.205Z,1.77
2023-03-18T14:16:53.482Z,2.83
2023-03-18T14:19:28.501Z,1.73
2023-03-18T14:22:07.731Z,0.90
2023-03-18T14:24:36.783Z,2.90
2023-03-18T14:27:18.387Z,2.22
2023-03-18T14:29:48.173Z,1.38
2023-03-18T14:32:38.491Z,2.20
2023-03-18T14:35:28.291Z,3.35
2023-03-18T14:38:02.815Z,1.55
2023-03-18T14:40:36.287Z,0.75
2023-03-18T14:43:10.886Z,1.48
2023-03-18T14:45:44.176Z,1.45
2023-03-18T14:48:20.837Z,1.38
2023-03-18T14:50:50.917Z,1.67
2023-03-18T14:53:23.626Z,1.02
2023-03-18T14:55:55.118Z,3.53
2023-03-18T14:58:25.858Z,1.95
2023-03-18T15:00:56.207Z,2.20
2023-03-18T15:03:28.347Z,2.40
2023-03-18T15:06:00.453Z,2.53
2023-03-18T15:08:46.376Z,2.35
2023-03-18T15:11:17.495Z,3.13
2023-03-18T15:13:48.374Z,3.35
2023-03-18T15:16:20.206Z,2.10
2023-03-18T15:18:54.846Z,2.00
2023-03-18T15:21:25.970Z,2.88
2023-03-18T15:23:56.509Z,4.55
2023-03-18T15:26:27.123Z,2.13
2023-03-18T15:28:57.543Z,1.70
2023-03-18T15:31:27.562Z,1.25
2023-03-18T15:34:16.425Z,2.72
2023-03-18T15:36:46.328Z,2.20
2023-03-18T15:39:22.140Z,2.42
2023-03-18T15:41:53.978Z,3.95
2023-03-18T15:44:26.844Z,2.45
2023-03-18T15:46:56.046Z,1.80
2023-03-18T15:49:28.731Z,2.70
2023-03-18T15:52:02.424Z,2.55
2023-03-18T15:54:38.562Z,1.48
2023-03-18T15:57:13.213Z,1.85
2023-03-18T15:59:41.229Z,3.00
2023-03-18T16:02:16.470Z,3.60
2023-03-18T16:04:48.319Z,2.88
2023-03-18T16:07:22.136Z,2.00
2023-03-18T16:09:51.353Z,4.10
2023-03-18T16:12:21.969Z,4.40
2023-03-18T16:14:51.967Z,2.53
2023-03-18T16:17:22.240Z,3.08
2023-03-18T16:19:54.434Z,1.80
2023-03-18T16:22:23.235Z,4.68
2023-03-18T16:24:51.784Z,3.10
2023-03-18T16:27:30.065Z,4.53
2023-03-18T16:29:58.219Z,2.22
2023-03-18T16:32:26.358Z,5.03
2023-03-18T16:34:55.612Z,5.18
2023-03-18T16:37:25.926Z,2.40
2023-03-18T16:39:55.888Z,3.22
2023-03-18T16:42:25.181Z,3.78
2023-03-18T16:44:53.306Z,1.50
2023-03-18T16:47:23.642Z,2.60
2023-03-18T16:49:52.376Z,3.45
2023-03-18T16:52:22.006Z,4.22
2023-03-18T16:54:50.115Z,2.58
2023-03-18T16:57:21.611Z,3.95
2023-03-18T16:59:53.073Z,1.95
2023-03-18T17:02:32.481Z,3.35
2023-03-18T17:05:01.090Z,2.47
2023-03-18T17:07:30.527Z,4.30
2023-03-18T17:09:58.587Z,4.77
2023-03-18T17:12:29.175Z,4.45
2023-03-18T17:14:58.545Z,3.63
2023-03-18T17:17:30.568Z,6.00
2023-03-18T17:19:59.710Z,6.23
2023-03-18T17:22:29.516Z,6.43
2023-03-18T17:25:00.246Z,4.83
2023-03-18T17:27:32.874Z,5.37
2023-03-18T17:30:01.621Z,4.57
2023-03-18T17:32:29.700Z,7.53
2023-03-18T17:34:57.775Z,8.50
2023-03-18T17:37:25.786Z,7.23
2023-03-18T17:39:54.036Z,7.80
2023-03-18T17:42:29.632Z,12.43
2023-03-18T17:45:00.510Z,8.40
2023-03-18T17:47:28.636Z,24.77
2023-03-18T17:49:56.734Z,17.40
2023-03-18T17:52:25.316Z,12.57
2023-03-18T17:54:53.311Z,11.43
2023-03-18T17:57:21.278Z,31.20
2023-03-18T17:59:51.591Z,26.53
2023-03-18T18:02:20.395Z,25.97
2023-03-18T18:04:48.661Z,31.10
2023-03-18T18:07:19.091Z,38.67
2023-03-18T18:09:47.558Z,33.50
2023-03-18T18:12:19.155Z,30.70
2023-03-18T18:14:47.471Z,31.00
2023-03-18T18:17:17.412Z,19.10
2023-03-18T18:19:45.693Z,15.50
2023-03-18T18:22:19.208Z,18.40
2023-03-18T18:24:47.524Z,13.53
2023-03-18T18:27:16.328Z,18.90
2023-03-18T18:29:45.918Z,13.70
2023-03-18T18:32:16.498Z,12.77
2023-03-18T18:34:45.152Z,13.27
2023-03-18T18:37:13.429Z,12.00
2023-03-18T18:39:42.861Z,12.73
2023-03-18T18:42:12.408Z,10.23
2023-03-18T18:44:40.489Z,14.80
2023-03-18T18:47:20.272Z,6.23
2023-03-18T18:49:48.682Z,7.50
2023-03-18T18:52:16.986Z,11.23
2023-03-18T18:54:45.232Z,10.27
2023-03-18T18:57:26.744Z,11.57
2023-03-18T18:59:55.010Z,10.17
2023-03-18T19:02:31.257Z,8.70
2023-03-18T19:05:00.030Z,15.07
2023-03-18T19:07:29.383Z,12.13
2023-03-18T19:09:57.440Z,17.23
2023-03-18T19:12:25.794Z,23.47
2023-03-18T19:14:54.285Z,23.73
2023-03-18T19:17:24.324Z,24.13
2023-03-18T19:19:54.723Z,19.00
2023-03-18T19:22:23.394Z,13.50
2023-03-18T19:24:51.658Z,11.40
2023-03-18T19:27:23.963Z,10.10
2023-03-18T19:29:53.603Z,11.93
2023-03-18T19:32:23.206Z,10.17
2023-03-18T19:34:54.111Z,7.37
2023-03-18T19:37:26.073Z,19.83
2023-03-18T19:39:55.650Z,17.37
2023-03-18T19:42:24.158Z,19.83
2023-03-18T19:44:52.128Z,24.77
2023-03-18T19:47:24.157Z,25.33
2023-03-18T19:49:53.661Z,20.43
2023-03-18T19:52:23.852Z,21.33
2023-03-18T19:54:52.694Z,19.93
2023-03-18T19:57:24.381Z,19.17
2023-03-18T19:59:54.153Z,22.70
2023-03-18T20:02:24.375Z,27.30
2023-03-18T20:04:55.477Z,31.27
2023-03-18T20:07:25.666Z,35.43
2023-03-18T20:09:55.184Z,46.87
2023-03-18T20:12:26.263Z,37.13
2023-03-18T20:14:54.326Z,41.77
2023-03-18T20:17:30.815Z,36.33
2023-03-18T20:20:00.459Z,35.33
2023-03-18T20:22:32.955Z,36.77
2023-03-18T20:25:01.172Z,38.37
2023-03-18T20:27:30.168Z,45.20
2023-03-18T20:29:58.816Z,44.60
2023-03-18T20:32:27.089Z,32.07
2023-03-18T20:34:55.110Z,27.07
2023-03-18T20:37:31.050Z,23.10
2023-03-18T20:39:59.142Z,23.43
2023-03-18T20:42:27.279Z,21.83
2023-03-18T20:44:55.834Z,20.37
2023-03-18T20:47:23.881Z,22.93
2023-03-18T20:49:51.949Z,28.33
2023-03-18T20:52:27.125Z,25.30
2023-03-18T20:54:56.567Z,26.57
2023-03-18T20:57:25.083Z,27.13
2023-03-18T20:59:53.390Z,21.33
2023-03-18T21:02:29.437Z,30.37
2023-03-18T21:04:58.683Z,24.70
2023-03-18T21:07:28.511Z,24.00
2023-03-18T21:09:56.706Z,23.47
2023-03-18T21:12:25.863Z,21.90
2023-03-18T21:14:53.935Z,25.90
2023-03-18T21:17:23.958Z,21.17
2023-03-18T21:19:53.412Z,19.07
2023-03-18T21:22:23.740Z,26.20
2023-03-18T21:24:53.353Z,22.60
2023-03-18T21:27:22.815Z,25.97
2023-03-18T21:29:52.426Z,28.67
2023-03-18T21:32:25.510Z,22.40
2023-03-18T21:34:53.605Z,24.43
2023-03-18T21:37:24.562Z,26.13
2023-03-18T21:39:54.625Z,22.13
2023-03-18T21:42:25.141Z,21.17
2023-03-18T21:44:53.474Z,23.33
2023-03-18T21:47:23.751Z,26.23
2023-03-18T21:49:51.895Z,23.10
2023-03-18T21:52:27.423Z,33.87
2023-03-18T21:54:56.970Z,35.10
2023-03-18T21:57:25.892Z,33.97
2023-03-18T21:59:54.704Z,54.77
2023-03-18T22:02:28.450Z,43.67
2023-03-18T22:04:57.943Z,47.03
2023-03-18T22:07:26.271Z,50.17
2023-03-18T22:09:54.624Z,41.20
2023-03-18T22:12:26.534Z,56.17
2023-03-18T22:14:54.536Z,39.23
2023-03-18T22:17:26.235Z,50.60
2023-03-18T22:19:55.498Z,31.57
2023-03-18T22:22:28.825Z,87.37
2023-03-18T22:24:57.578Z,62.37
2023-03-18T22:27:28.789Z,63.17
2023-03-18T22:29:58.642Z,58.33
2023-03-18T22:32:40.197Z,47.40
2023-03-18T22:35:14.887Z,53.63
2023-03-18T22:37:43.235Z,27.53
2023-03-18T22:40:17.443Z,24.80
2023-03-18T22:42:47.138Z,48.00
2023-03-18T22:45:23.845Z,47.30
2023-03-18T22:47:53.346Z,91.17
2023-03-18T22:50:21.766Z,60.93
2023-03-18T22:52:51.887Z,61.30
2023-03-18T22:55:25.402Z,46.57
2023-03-18T22:57:54.917Z,25.63
2023-03-18T23:00:25.812Z,30.30
2023-03-18T23:02:55.010Z,22.30
2023-03-18T23:05:24.944Z,18.97
2023-03-18T23:07:53.600Z,17.77
2023-03-18T23:10:22.460Z,17.57
2023-03-18T23:12:50.844Z,26.07
2023-03-18T23:15:23.756Z,23.33
2023-03-18T23:17:51.978Z,35.93
2023-03-18T23:20:21.031Z,69.23
2023-03-18T23:22:49.542Z,65.07
2023-03-18T23:25:19.373Z,55.40
2023-03-18T23:27:48.150Z,47.30
2023-03-18T23:30:16.809Z,33.50
2023-03-18T23:32:46.948Z,32.60
2023-03-18T23:35:15.188Z,27.00
2023-03-18T23:37:43.372Z,20.97
2023-03-18T23:40:12.454Z,21.53
2023-03-18T23:42:40.896Z,41.07
2023-03-18T23:45:10.149Z,29.07
2023-03-18T23:47:38.832Z,26.20
2023-03-18T23:50:10.579Z,14.23
2023-03-18T23:52:38.918Z,26.50
2023-03-18T23:55:21.395Z,21.73
2023-03-18T23:57:56.479Z,32.43
